Warning: Javascript must be enabled to use all the features on this page!


Page Loading - Please Wait...

* We've detected you're using a mobile device. Find our Next Generation Station Page here.
Click to hideNews Bulletins

Peak Streamflow for the Nation

USGS 03182500 GREENBRIER RIVER AT BUCKEYE, WV

Pocahontas County, West Virginia
Hydrologic Unit Code 05050003
Latitude  38°11'10.4", Longitude  80°07'48.0" NAD83
Drainage area 539  square miles
Gage datum 2,085.70 feet above NAVD88
Output formats
Table
Graph
Tab-separated file
peakfq (watstore) format
Reselect output format
Water
Year
Date Gage
Height
(feet)
Stream-
flow
(cfs)
1930 1929-11-18 11.70 17,200
1931 1931-04-04 9.00 9,540
1932 1932-02-05 17.50 41,500
1933 1933-03-19 8.80 8,920
1934 1934-03-05 10.43 13,300
1935 1935-01-23 11.80 17,600
1936 1936-03-17 15.70 32,800
1937 1937-01-20 12.00 18,300
1938 1937-10-28 11.40 16,300
1939 1939-02-04 14.30 26,800
1940 1940-04-20 10.03 12,200
1941 1941-04-05 7.24 5,630
1942 1942-05-16 13.70 24,400
1943 1942-12-30 11.86 18,000
1944 1944-02-23 11.41 16,300
1945 1944-12-26 9.70 11,400
1946 1946-01-07 12.45 19,700
1947 1947-03-14 10.02 12,200
1948 1948-04-14 14.19 26,400
1949 1948-12-15 10.80 14,500
1950 1950-01-31 11.20 14,700
1951 1950-12-08 12.54 19,000
1952 1952-03-11 12.01 17,500
1953 1953-02-21 14.57 27,200
1954 1954-07-15 13.06 20,700
1955 1954-10-16 15.07 27,300
1956 1956-03-14 9.36 9,900
1957 1957-01-23 11.30 15,100
1958 1958-05-05 11.37 15,400
1959 1959-06-02 11.20 14,800
1960 1960-04-04 12.85 19,800
1961 1961-02-25 12.32 18,200
1962 1962-03-21 11.33 15,100
1963 1963-03-20 12.50 18,800
1964 1964-03-05 14.33 24,800
1965 1965-02-07 11.10 14,500
1966 1966-02-13 11.37 15,300
1967 1967-03-07 17.40 38,700
1968 1968-03-13 10.73 13,400
1969 1969-08-20 11.26 15,000
1970 1969-12-31 13.81 23,200
1971 1970-12-22 11.47 15,600
1972 1972-02-26 13.43 21,900
1973 1972-12-09 11.17 14,700
1974 1973-12-26 16.01 32,400
1975 1975-03-19 9.91 11,200
1976 1975-10-18 12.16 17,700
1977 1976-10-09 16.54 34,800
1978 1978-03-26 15.15 28,600
1979 1979-02-24 11.62 16,100
1980 1980-05-21 10.60 13,100
1981 1981-05-28 10.49 12,800
1982 1982-03-20 15.49 30,100
1983 1982-11-29 10.81 13,700
1984 1984-02-14 14.69 26,700
1985 1985-05-03 10.06 11,400
1986 1985-11-05 23.20 82,000
1987 1987-04-15 11.23 14,900
1988 1988-01-20 10.96 14,100
1989 1989-04-26 15.79 31,400
1990 1989-12-31 10.96 14,100
1991 1991-03-23 13.60 22,600
1992 1991-12-03 12.43 18,600
1993 1993-03-24 13.11 20,900
1994 1994-02-09 14.88 27,400
1995 1995-01-15 14.14 24,500
1996 1996-01-19 20.93 61,500
1997 1996-11-08 13.71 22,900
1998 1998-01-08 13.41 21,900
1999 1999-01-24 10.18 11,800
2000 2000-02-19 13.54 22,300
2001 2001-05-23 11.73 16,300
2002 2002-04-28 13.98 23,800
2003 2003-02-22 12.43 18,500
2004 2003-11-19 15.91 31,800
2005 2005-03-28 10.99 14,100
2006 2006-06-27 11.44 15,400
2007 2007-03-02 16.00 32,200
2008 2008-03-05 14.59 26,200
2009 2008-12-12 10.73 13,300
2010 2010-01-25 16.75 35,600
2011 2011-04-13 13.67 22,700
2012 2012-03-01 12.40 18,400
2013 2013-01-31 14.37 25,300
2014 2014-05-16 13.29 21,400
2015 2015-03-11 13.03 17,300
2016 2016-06-23 14.41 30,100R
2017 2017-05-25 8.70 10,500R
2018 2018-04-16 14.11 28,900
2019 2019-02-24 9.47 12,600
2020 2020-04-30 10.29 15,100
2021 2021-03-01 14.41 30,100
?
  Peak Streamflow Qualification Codes.